sensor_id;sensor_type;location;lat;lon;timestamp;P1;durP1;ratioP1;P2;durP2;ratioP2
22234;SDS011;11286;45.596;5.284;2022-07-19T00:02:08;9.55;;;8.55;;
22234;SDS011;11286;45.596;5.284;2022-07-19T00:04:34;9.55;;;8.65;;
22234;SDS011;11286;45.596;5.284;2022-07-19T00:07:00;10.13;;;9.10;;
22234;SDS011;11286;45.596;5.284;2022-07-19T00:09:26;10.73;;;9.13;;
22234;SDS011;11286;45.596;5.284;2022-07-19T00:11:52;10.23;;;9.43;;
22234;SDS011;11286;45.596;5.284;2022-07-19T00:14:18;10.68;;;9.77;;
22234;SDS011;11286;45.596;5.284;2022-07-19T00:16:44;10.02;;;9.15;;
22234;SDS011;11286;45.596;5.284;2022-07-19T00:19:10;10.77;;;9.23;;
22234;SDS011;11286;45.596;5.284;2022-07-19T00:21:36;9.70;;;8.80;;
22234;SDS011;11286;45.596;5.284;2022-07-19T00:24:01;10.00;;;9.10;;
22234;SDS011;11286;45.596;5.284;2022-07-19T00:26:27;9.65;;;8.75;;
22234;SDS011;11286;45.596;5.284;2022-07-19T00:28:53;9.63;;;8.82;;
22234;SDS011;11286;45.596;5.284;2022-07-19T00:31:23;9.15;;;8.25;;
22234;SDS011;11286;45.596;5.284;2022-07-19T00:33:49;9.00;;;8.20;;
22234;SDS011;11286;45.596;5.284;2022-07-19T00:36:16;9.00;;;8.10;;
22234;SDS011;11286;45.596;5.284;2022-07-19T00:38:42;8.93;;;8.13;;
22234;SDS011;11286;45.596;5.284;2022-07-19T00:41:08;8.60;;;7.80;;
22234;SDS011;11286;45.596;5.284;2022-07-19T00:43:34;8.50;;;7.80;;
22234;SDS011;11286;45.596;5.284;2022-07-19T00:46:00;8.35;;;7.65;;
22234;SDS011;11286;45.596;5.284;2022-07-19T00:48:25;8.80;;;8.00;;
22234;SDS011;11286;45.596;5.284;2022-07-19T00:50:51;8.88;;;7.97;;
22234;SDS011;11286;45.596;5.284;2022-07-19T00:53:17;8.52;;;7.65;;
22234;SDS011;11286;45.596;5.284;2022-07-19T00:55:44;8.15;;;7.35;;
22234;SDS011;11286;45.596;5.284;2022-07-19T00:58:11;8.35;;;7.57;;
22234;SDS011;11286;45.596;5.284;2022-07-19T01:00:38;8.65;;;7.90;;
22234;SDS011;11286;45.596;5.284;2022-07-19T01:03:05;8.05;;;7.25;;
22234;SDS011;11286;45.596;5.284;2022-07-19T01:05:33;8.32;;;7.55;;
22234;SDS011;11286;45.596;5.284;2022-07-19T01:07:59;8.15;;;7.45;;
22234;SDS011;11286;45.596;5.284;2022-07-19T01:10:25;8.48;;;7.78;;
22234;SDS011;11286;45.596;5.284;2022-07-19T01:12:52;8.60;;;7.40;;
22234;SDS011;11286;45.596;5.284;2022-07-19T01:15:19;8.68;;;7.63;;
22234;SDS011;11286;45.596;5.284;2022-07-19T01:17:47;8.57;;;7.78;;
22234;SDS011;11286;45.596;5.284;2022-07-19T01:20:14;8.25;;;7.20;;
22234;SDS011;11286;45.596;5.284;2022-07-19T01:22:40;8.32;;;7.53;;
22234;SDS011;11286;45.596;5.284;2022-07-19T01:25:07;8.38;;;7.32;;
22234;SDS011;11286;45.596;5.284;2022-07-19T01:27:40;8.70;;;7.75;;
22234;SDS011;11286;45.596;5.284;2022-07-19T01:30:11;8.80;;;7.97;;
22234;SDS011;11286;45.596;5.284;2022-07-19T01:32:38;8.45;;;7.70;;
22234;SDS011;11286;45.596;5.284;2022-07-19T01:35:05;8.23;;;7.43;;
22234;SDS011;11286;45.596;5.284;2022-07-19T01:37:31;8.30;;;7.57;;
22234;SDS011;11286;45.596;5.284;2022-07-19T01:39:57;8.95;;;8.13;;
22234;SDS011;11286;45.596;5.284;2022-07-19T01:42:23;7.97;;;7.25;;
22234;SDS011;11286;45.596;5.284;2022-07-19T01:44:49;8.35;;;7.55;;
22234;SDS011;11286;45.596;5.284;2022-07-19T01:47:15;10.48;;;7.78;;
22234;SDS011;11286;45.596;5.284;2022-07-19T01:49:41;8.18;;;7.47;;
22234;SDS011;11286;45.596;5.284;2022-07-19T01:52:07;9.02;;;7.93;;
22234;SDS011;11286;45.596;5.284;2022-07-19T01:54:32;8.40;;;7.57;;
22234;SDS011;11286;45.596;5.284;2022-07-19T01:56:58;8.73;;;7.80;;
22234;SDS011;11286;45.596;5.284;2022-07-19T01:59:24;8.20;;;7.40;;
22234;SDS011;11286;45.596;5.284;2022-07-19T02:01:49;8.60;;;7.80;;
22234;SDS011;11286;45.596;5.284;2022-07-19T02:04:15;7.65;;;7.00;;
22234;SDS011;11286;45.596;5.284;2022-07-19T02:06:41;8.40;;;7.60;;
22234;SDS011;11286;45.596;5.284;2022-07-19T02:09:06;8.45;;;7.75;;
22234;SDS011;11286;45.596;5.284;2022-07-19T02:11:32;8.02;;;7.30;;
22234;SDS011;11286;45.596;5.284;2022-07-19T02:14:01;7.80;;;7.10;;
22234;SDS011;11286;45.596;5.284;2022-07-19T02:16:33;7.85;;;7.15;;
22234;SDS011;11286;45.596;5.284;2022-07-19T02:19:00;8.35;;;7.50;;
22234;SDS011;11286;45.596;5.284;2022-07-19T02:21:26;7.90;;;7.18;;
22234;SDS011;11286;45.596;5.284;2022-07-19T02:23:51;8.10;;;7.40;;
22234;SDS011;11286;45.596;5.284;2022-07-19T02:26:17;8.27;;;7.60;;
22234;SDS011;11286;45.596;5.284;2022-07-19T02:28:43;8.77;;;7.40;;
22234;SDS011;11286;45.596;5.284;2022-07-19T02:31:08;8.57;;;7.65;;
22234;SDS011;11286;45.596;5.284;2022-07-19T02:33:34;8.20;;;7.40;;
22234;SDS011;11286;45.596;5.284;2022-07-19T02:36:01;8.05;;;7.25;;
22234;SDS011;11286;45.596;5.284;2022-07-19T02:38:28;8.75;;;8.00;;
22234;SDS011;11286;45.596;5.284;2022-07-19T02:40:54;8.30;;;7.57;;
22234;SDS011;11286;45.596;5.284;2022-07-19T02:43:20;8.23;;;7.50;;
22234;SDS011;11286;45.596;5.284;2022-07-19T02:45:46;8.68;;;7.70;;
22234;SDS011;11286;45.596;5.284;2022-07-19T02:48:12;7.88;;;7.25;;
22234;SDS011;11286;45.596;5.284;2022-07-19T02:50:37;8.70;;;7.80;;
22234;SDS011;11286;45.596;5.284;2022-07-19T02:53:03;8.55;;;7.70;;
22234;SDS011;11286;45.596;5.284;2022-07-19T02:55:28;8.15;;;7.38;;
22234;SDS011;11286;45.596;5.284;2022-07-19T02:57:55;7.95;;;7.25;;
22234;SDS011;11286;45.596;5.284;2022-07-19T03:00:20;8.30;;;7.50;;
22234;SDS011;11286;45.596;5.284;2022-07-19T03:02:46;8.50;;;7.57;;
22234;SDS011;11286;45.596;5.284;2022-07-19T03:05:12;8.05;;;7.32;;
22234;SDS011;11286;45.596;5.284;2022-07-19T03:07:37;8.65;;;7.50;;
22234;SDS011;11286;45.596;5.284;2022-07-19T03:10:04;8.65;;;7.90;;
22234;SDS011;11286;45.596;5.284;2022-07-19T03:12:30;8.10;;;7.30;;
22234;SDS011;11286;45.596;5.284;2022-07-19T03:14:56;7.95;;;7.25;;
22234;SDS011;11286;45.596;5.284;2022-07-19T03:17:21;8.40;;;7.70;;
22234;SDS011;11286;45.596;5.284;2022-07-19T03:19:47;7.75;;;7.05;;
22234;SDS011;11286;45.596;5.284;2022-07-19T03:22:12;8.75;;;7.70;;
22234;SDS011;11286;45.596;5.284;2022-07-19T03:24:38;8.75;;;7.88;;
22234;SDS011;11286;45.596;5.284;2022-07-19T03:27:04;8.75;;;7.88;;
22234;SDS011;11286;45.596;5.284;2022-07-19T03:29:29;8.40;;;7.53;;
22234;SDS011;11286;45.596;5.284;2022-07-19T03:31:55;8.55;;;7.80;;
22234;SDS011;11286;45.596;5.284;2022-07-19T03:34:21;10.27;;;7.72;;
22234;SDS011;11286;45.596;5.284;2022-07-19T03:36:47;8.52;;;7.82;;
22234;SDS011;11286;45.596;5.284;2022-07-19T03:39:13;8.35;;;7.55;;
22234;SDS011;11286;45.596;5.284;2022-07-19T03:41:38;8.23;;;7.53;;
22234;SDS011;11286;45.596;5.284;2022-07-19T03:44:04;10.38;;;7.57;;
22234;SDS011;11286;45.596;5.284;2022-07-19T03:46:30;9.35;;;7.55;;
22234;SDS011;11286;45.596;5.284;2022-07-19T03:48:56;9.35;;;8.15;;
22234;SDS011;11286;45.596;5.284;2022-07-19T03:51:22;8.40;;;7.70;;
22234;SDS011;11286;45.596;5.284;2022-07-19T03:53:48;8.98;;;7.93;;
22234;SDS011;11286;45.596;5.284;2022-07-19T03:56:14;10.15;;;8.20;;
22234;SDS011;11286;45.596;5.284;2022-07-19T03:58:42;8.82;;;7.50;;
22234;SDS011;11286;45.596;5.284;2022-07-19T04:01:09;8.68;;;7.88;;
22234;SDS011;11286;45.596;5.284;2022-07-19T04:03:38;9.40;;;8.23;;
22234;SDS011;11286;45.596;5.284;2022-07-19T04:06:08;9.05;;;8.18;;
22234;SDS011;11286;45.596;5.284;2022-07-19T04:08:35;8.82;;;8.13;;
22234;SDS011;11286;45.596;5.284;2022-07-19T04:11:01;8.80;;;7.93;;
22234;SDS011;11286;45.596;5.284;2022-07-19T04:13:28;8.38;;;7.57;;
22234;SDS011;11286;45.596;5.284;2022-07-19T04:15:53;9.50;;;8.20;;
22234;SDS011;11286;45.596;5.284;2022-07-19T04:18:19;8.65;;;7.78;;
22234;SDS011;11286;45.596;5.284;2022-07-19T04:20:44;9.57;;;7.95;;
22234;SDS011;11286;45.596;5.284;2022-07-19T04:23:10;8.57;;;7.85;;
22234;SDS011;11286;45.596;5.284;2022-07-19T04:25:36;8.57;;;7.78;;
22234;SDS011;11286;45.596;5.284;2022-07-19T04:28:02;9.45;;;8.45;;
22234;SDS011;11286;45.596;5.284;2022-07-19T04:30:28;10.07;;;8.45;;
22234;SDS011;11286;45.596;5.284;2022-07-19T04:32:54;9.20;;;8.35;;
22234;SDS011;11286;45.596;5.284;2022-07-19T04:35:20;9.85;;;8.88;;
22234;SDS011;11286;45.596;5.284;2022-07-19T04:37:45;8.73;;;7.93;;
22234;SDS011;11286;45.596;5.284;2022-07-19T04:40:11;10.50;;;8.35;;
22234;SDS011;11286;45.596;5.284;2022-07-19T04:42:37;8.88;;;8.07;;
22234;SDS011;11286;45.596;5.284;2022-07-19T04:45:03;9.70;;;8.70;;
22234;SDS011;11286;45.596;5.284;2022-07-19T04:47:30;9.32;;;8.48;;
22234;SDS011;11286;45.596;5.284;2022-07-19T04:49:55;9.30;;;8.40;;
22234;SDS011;11286;45.596;5.284;2022-07-19T04:52:21;9.45;;;8.65;;
22234;SDS011;11286;45.596;5.284;2022-07-19T04:54:46;9.35;;;8.55;;
22234;SDS011;11286;45.596;5.284;2022-07-19T04:57:12;9.40;;;8.60;;
22234;SDS011;11286;45.596;5.284;2022-07-19T04:59:39;9.88;;;8.88;;
22234;SDS011;11286;45.596;5.284;2022-07-19T05:02:05;9.75;;;8.73;;
22234;SDS011;11286;45.596;5.284;2022-07-19T05:04:31;9.95;;;9.05;;
22234;SDS011;11286;45.596;5.284;2022-07-19T05:06:57;10.90;;;8.68;;
22234;SDS011;11286;45.596;5.284;2022-07-19T05:09:26;10.00;;;9.00;;
22234;SDS011;11286;45.596;5.284;2022-07-19T05:11:53;9.27;;;8.48;;
22234;SDS011;11286;45.596;5.284;2022-07-19T05:14:19;10.13;;;9.05;;
22234;SDS011;11286;45.596;5.284;2022-07-19T05:16:45;10.85;;;8.82;;
22234;SDS011;11286;45.596;5.284;2022-07-19T05:19:12;9.63;;;8.43;;
22234;SDS011;11286;45.596;5.284;2022-07-19T05:21:38;9.52;;;8.60;;
22234;SDS011;11286;45.596;5.284;2022-07-19T05:24:04;9.82;;;8.90;;
22234;SDS011;11286;45.596;5.284;2022-07-19T05:26:30;9.68;;;8.63;;
22234;SDS011;11286;45.596;5.284;2022-07-19T05:28:57;9.63;;;8.73;;
22234;SDS011;11286;45.596;5.284;2022-07-19T05:31:22;10.13;;;9.23;;
22234;SDS011;11286;45.596;5.284;2022-07-19T05:33:48;10.32;;;9.25;;
22234;SDS011;11286;45.596;5.284;2022-07-19T05:36:13;10.30;;;9.30;;
22234;SDS011;11286;45.596;5.284;2022-07-19T05:38:39;10.75;;;9.85;;
22234;SDS011;11286;45.596;5.284;2022-07-19T05:41:06;10.65;;;9.60;;
22234;SDS011;11286;45.596;5.284;2022-07-19T05:43:32;10.15;;;9.15;;
22234;SDS011;11286;45.596;5.284;2022-07-19T05:45:59;10.68;;;9.77;;
22234;SDS011;11286;45.596;5.284;2022-07-19T05:48:25;10.80;;;9.70;;
22234;SDS011;11286;45.596;5.284;2022-07-19T05:50:51;10.55;;;9.55;;
22234;SDS011;11286;45.596;5.284;2022-07-19T05:53:16;10.50;;;9.50;;
22234;SDS011;11286;45.596;5.284;2022-07-19T05:55:43;12.82;;;10.35;;
22234;SDS011;11286;45.596;5.284;2022-07-19T05:58:09;11.10;;;9.95;;
22234;SDS011;11286;45.596;5.284;2022-07-19T06:00:34;11.07;;;10.00;;
22234;SDS011;11286;45.596;5.284;2022-07-19T06:03:00;13.38;;;10.13;;
22234;SDS011;11286;45.596;5.284;2022-07-19T06:05:25;10.65;;;9.73;;
22234;SDS011;11286;45.596;5.284;2022-07-19T06:07:51;10.90;;;10.00;;
22234;SDS011;11286;45.596;5.284;2022-07-19T06:10:17;12.10;;;10.80;;
22234;SDS011;11286;45.596;5.284;2022-07-19T06:12:42;11.18;;;10.07;;
22234;SDS011;11286;45.596;5.284;2022-07-19T06:15:08;11.57;;;10.38;;
22234;SDS011;11286;45.596;5.284;2022-07-19T06:17:34;14.55;;;11.25;;
22234;SDS011;11286;45.596;5.284;2022-07-19T06:20:00;11.52;;;10.23;;
22234;SDS011;11286;45.596;5.284;2022-07-19T06:22:28;11.35;;;10.25;;
22234;SDS011;11286;45.596;5.284;2022-07-19T06:24:56;11.50;;;10.35;;
22234;SDS011;11286;45.596;5.284;2022-07-19T06:27:22;11.93;;;10.23;;
22234;SDS011;11286;45.596;5.284;2022-07-19T06:29:47;11.73;;;10.48;;
22234;SDS011;11286;45.596;5.284;2022-07-19T06:32:13;11.10;;;10.13;;
22234;SDS011;11286;45.596;5.284;2022-07-19T06:34:39;13.88;;;9.93;;
22234;SDS011;11286;45.596;5.284;2022-07-19T06:37:04;14.02;;;10.60;;
22234;SDS011;11286;45.596;5.284;2022-07-19T06:39:30;10.68;;;9.68;;
22234;SDS011;11286;45.596;5.284;2022-07-19T06:41:56;15.57;;;9.82;;
22234;SDS011;11286;45.596;5.284;2022-07-19T06:44:21;12.82;;;10.27;;
22234;SDS011;11286;45.596;5.284;2022-07-19T06:46:47;10.80;;;9.73;;
22234;SDS011;11286;45.596;5.284;2022-07-19T06:49:12;10.90;;;9.43;;
22234;SDS011;11286;45.596;5.284;2022-07-19T06:51:38;12.10;;;10.35;;
22234;SDS011;11286;45.596;5.284;2022-07-19T06:54:03;11.20;;;10.00;;
22234;SDS011;11286;45.596;5.284;2022-07-19T06:56:29;12.43;;;9.38;;
22234;SDS011;11286;45.596;5.284;2022-07-19T06:58:55;11.60;;;9.30;;
22234;SDS011;11286;45.596;5.284;2022-07-19T07:01:20;10.38;;;9.27;;
22234;SDS011;11286;45.596;5.284;2022-07-19T07:03:46;11.15;;;9.60;;
22234;SDS011;11286;45.596;5.284;2022-07-19T07:06:12;12.15;;;9.98;;
22234;SDS011;11286;45.596;5.284;2022-07-19T07:08:37;12.07;;;9.10;;
22234;SDS011;11286;45.596;5.284;2022-07-19T07:11:03;10.77;;;9.00;;
22234;SDS011;11286;45.596;5.284;2022-07-19T07:13:29;10.48;;;9.20;;
22234;SDS011;11286;45.596;5.284;2022-07-19T07:15:55;10.13;;;9.05;;
22234;SDS011;11286;45.596;5.284;2022-07-19T07:18:20;10.23;;;8.75;;
22234;SDS011;11286;45.596;5.284;2022-07-19T07:20:46;9.60;;;8.70;;
22234;SDS011;11286;45.596;5.284;2022-07-19T07:23:12;10.23;;;9.05;;
22234;SDS011;11286;45.596;5.284;2022-07-19T07:25:37;10.15;;;9.18;;
22234;SDS011;11286;45.596;5.284;2022-07-19T07:28:03;11.05;;;10.00;;
22234;SDS011;11286;45.596;5.284;2022-07-19T07:30:29;9.40;;;8.60;;
22234;SDS011;11286;45.596;5.284;2022-07-19T07:32:54;10.20;;;9.23;;
22234;SDS011;11286;45.596;5.284;2022-07-19T07:35:20;9.98;;;9.07;;
22234;SDS011;11286;45.596;5.284;2022-07-19T07:37:46;11.75;;;9.63;;
22234;SDS011;11286;45.596;5.284;2022-07-19T07:40:11;12.77;;;9.75;;
22234;SDS011;11286;45.596;5.284;2022-07-19T07:42:37;10.27;;;9.27;;
22234;SDS011;11286;45.596;5.284;2022-07-19T07:45:03;11.68;;;10.05;;
22234;SDS011;11286;45.596;5.284;2022-07-19T07:47:29;11.38;;;10.32;;
22234;SDS011;11286;45.596;5.284;2022-07-19T07:49:55;11.40;;;9.98;;
22234;SDS011;11286;45.596;5.284;2022-07-19T07:52:20;13.40;;;11.07;;
22234;SDS011;11286;45.596;5.284;2022-07-19T07:54:46;14.02;;;11.68;;
22234;SDS011;11286;45.596;5.284;2022-07-19T07:57:13;12.85;;;11.38;;
22234;SDS011;11286;45.596;5.284;2022-07-19T07:59:39;12.05;;;10.88;;
22234;SDS011;11286;45.596;5.284;2022-07-19T08:02:04;12.48;;;11.15;;
22234;SDS011;11286;45.596;5.284;2022-07-19T08:04:30;12.23;;;11.02;;
22234;SDS011;11286;45.596;5.284;2022-07-19T08:06:55;13.45;;;12.23;;
22234;SDS011;11286;45.596;5.284;2022-07-19T08:09:21;13.02;;;11.88;;
22234;SDS011;11286;45.596;5.284;2022-07-19T08:11:47;13.20;;;12.18;;
22234;SDS011;11286;45.596;5.284;2022-07-19T08:14:12;13.10;;;11.80;;
22234;SDS011;11286;45.596;5.284;2022-07-19T08:16:38;13.38;;;12.13;;
22234;SDS011;11286;45.596;5.284;2022-07-19T08:19:04;13.20;;;12.00;;
22234;SDS011;11286;45.596;5.284;2022-07-19T08:21:30;12.85;;;11.60;;
22234;SDS011;11286;45.596;5.284;2022-07-19T08:23:56;13.70;;;12.50;;
22234;SDS011;11286;45.596;5.284;2022-07-19T08:26:21;12.90;;;11.60;;
22234;SDS011;11286;45.596;5.284;2022-07-19T08:28:47;12.90;;;11.70;;
22234;SDS011;11286;45.596;5.284;2022-07-19T08:31:14;11.43;;;10.52;;
22234;SDS011;11286;45.596;5.284;2022-07-19T08:33:40;12.23;;;10.98;;
22234;SDS011;11286;45.596;5.284;2022-07-19T08:36:07;12.43;;;11.07;;
22234;SDS011;11286;45.596;5.284;2022-07-19T08:38:35;12.57;;;11.48;;
22234;SDS011;11286;45.596;5.284;2022-07-19T08:41:02;12.15;;;10.98;;
22234;SDS011;11286;45.596;5.284;2022-07-19T08:43:29;11.68;;;10.75;;
22234;SDS011;11286;45.596;5.284;2022-07-19T08:45:57;12.10;;;11.10;;
22234;SDS011;11286;45.596;5.284;2022-07-19T08:48:26;11.88;;;10.88;;
22234;SDS011;11286;45.596;5.284;2022-07-19T08:50:56;11.95;;;10.85;;
22234;SDS011;11286;45.596;5.284;2022-07-19T08:53:24;12.10;;;11.00;;
22234;SDS011;11286;45.596;5.284;2022-07-19T08:55:53;12.63;;;10.63;;
22234;SDS011;11286;45.596;5.284;2022-07-19T08:58:19;11.65;;;10.70;;
22234;SDS011;11286;45.596;5.284;2022-07-19T09:00:45;12.98;;;11.50;;
22234;SDS011;11286;45.596;5.284;2022-07-19T09:03:10;11.63;;;10.73;;
22234;SDS011;11286;45.596;5.284;2022-07-19T09:05:37;12.75;;;11.48;;
22234;SDS011;11286;45.596;5.284;2022-07-19T09:08:07;13.07;;;11.00;;
22234;SDS011;11286;45.596;5.284;2022-07-19T09:10:38;12.45;;;11.15;;
22234;SDS011;11286;45.596;5.284;2022-07-19T09:13:13;11.70;;;10.60;;
22234;SDS011;11286;45.596;5.284;2022-07-19T09:15:44;12.30;;;11.02;;
22234;SDS011;11286;45.596;5.284;2022-07-19T09:18:11;11.05;;;10.15;;
22234;SDS011;11286;45.596;5.284;2022-07-19T09:20:38;12.10;;;10.93;;
22234;SDS011;11286;45.596;5.284;2022-07-19T09:23:05;11.75;;;10.55;;
22234;SDS011;11286;45.596;5.284;2022-07-19T09:25:32;12.35;;;11.25;;
22234;SDS011;11286;45.596;5.284;2022-07-19T09:27:59;11.68;;;10.57;;
22234;SDS011;11286;45.596;5.284;2022-07-19T09:30:35;12.35;;;11.15;;
22234;SDS011;11286;45.596;5.284;2022-07-19T09:33:13;12.80;;;10.70;;
22234;SDS011;11286;45.596;5.284;2022-07-19T09:40:49;11.48;;;10.57;;
22234;SDS011;11286;45.596;5.284;2022-07-19T09:43:16;12.95;;;11.38;;
22234;SDS011;11286;45.596;5.284;2022-07-19T09:45:44;11.18;;;10.18;;
22234;SDS011;11286;45.596;5.284;2022-07-19T09:48:10;11.43;;;10.25;;
22234;SDS011;11286;45.596;5.284;2022-07-19T09:50:36;10.85;;;9.98;;
22234;SDS011;11286;45.596;5.284;2022-07-19T09:53:04;12.32;;;10.48;;
22234;SDS011;11286;45.596;5.284;2022-07-19T09:55:31;10.80;;;9.93;;
22234;SDS011;11286;45.596;5.284;2022-07-19T09:57:58;11.05;;;10.20;;
22234;SDS011;11286;45.596;5.284;2022-07-19T10:00:26;10.80;;;10.00;;
22234;SDS011;11286;45.596;5.284;2022-07-19T10:02:54;11.35;;;10.25;;
22234;SDS011;11286;45.596;5.284;2022-07-19T10:05:21;11.60;;;10.57;;
22234;SDS011;11286;45.596;5.284;2022-07-19T10:07:48;11.68;;;10.57;;
22234;SDS011;11286;45.596;5.284;2022-07-19T10:10:15;11.60;;;10.55;;
22234;SDS011;11286;45.596;5.284;2022-07-19T10:12:43;11.55;;;10.65;;
22234;SDS011;11286;45.596;5.284;2022-07-19T10:15:11;11.40;;;10.23;;
22234;SDS011;11286;45.596;5.284;2022-07-19T10:17:39;11.32;;;10.32;;
22234;SDS011;11286;45.596;5.284;2022-07-19T10:20:16;12.07;;;10.80;;
22234;SDS011;11286;45.596;5.284;2022-07-19T10:22:44;11.88;;;10.80;;
22234;SDS011;11286;45.596;5.284;2022-07-19T10:25:14;11.30;;;10.30;;
22234;SDS011;11286;45.596;5.284;2022-07-19T10:27:41;12.32;;;11.02;;
22234;SDS011;11286;45.596;5.284;2022-07-19T10:32:38;11.43;;;10.35;;
22234;SDS011;11286;45.596;5.284;2022-07-19T10:37:47;11.00;;;10.10;;
22234;SDS011;11286;45.596;5.284;2022-07-19T10:45:31;12.20;;;11.00;;
22234;SDS011;11286;45.596;5.284;2022-07-19T10:47:58;12.48;;;11.23;;
22234;SDS011;11286;45.596;5.284;2022-07-19T10:50:28;11.50;;;10.57;;
22234;SDS011;11286;45.596;5.284;2022-07-19T10:56:23;11.80;;;10.65;;
22234;SDS011;11286;45.596;5.284;2022-07-19T10:58:55;12.75;;;11.52;;
22234;SDS011;11286;45.596;5.284;2022-07-19T11:01:25;11.88;;;10.77;;
22234;SDS011;11286;45.596;5.284;2022-07-19T11:03:53;11.27;;;10.38;;
22234;SDS011;11286;45.596;5.284;2022-07-19T11:06:23;12.90;;;11.88;;
22234;SDS011;11286;45.596;5.284;2022-07-19T11:08:54;11.70;;;10.80;;
22234;SDS011;11286;45.596;5.284;2022-07-19T11:11:22;12.93;;;11.95;;
22234;SDS011;11286;45.596;5.284;2022-07-19T11:13:52;12.10;;;11.20;;
22234;SDS011;11286;45.596;5.284;2022-07-19T11:16:25;11.65;;;10.75;;
22234;SDS011;11286;45.596;5.284;2022-07-19T11:18:51;11.90;;;11.00;;
22234;SDS011;11286;45.596;5.284;2022-07-19T11:21:29;12.27;;;11.35;;
22234;SDS011;11286;45.596;5.284;2022-07-19T11:23:57;12.35;;;11.35;;
22234;SDS011;11286;45.596;5.284;2022-07-19T11:26:23;11.57;;;10.57;;
22234;SDS011;11286;45.596;5.284;2022-07-19T11:28:48;12.70;;;10.90;;
22234;SDS011;11286;45.596;5.284;2022-07-19T11:33:45;12.27;;;11.18;;
22234;SDS011;11286;45.596;5.284;2022-07-19T11:36:13;13.02;;;10.85;;
22234;SDS011;11286;45.596;5.284;2022-07-19T11:43:56;12.60;;;11.35;;
22234;SDS011;11286;45.596;5.284;2022-07-19T11:46:29;12.30;;;11.40;;
22234;SDS011;11286;45.596;5.284;2022-07-19T11:49:08;11.98;;;10.98;;
22234;SDS011;11286;45.596;5.284;2022-07-19T11:51:35;11.85;;;10.98;;
22234;SDS011;11286;45.596;5.284;2022-07-19T11:54:02;11.88;;;10.77;;
22234;SDS011;11286;45.596;5.284;2022-07-19T11:56:30;11.77;;;10.85;;
22234;SDS011;11286;45.596;5.284;2022-07-19T11:59:00;11.63;;;10.68;;
22234;SDS011;11286;45.596;5.284;2022-07-19T12:01:29;11.45;;;10.55;;
22234;SDS011;11286;45.596;5.284;2022-07-19T12:03:57;13.43;;;11.32;;
22234;SDS011;11286;45.596;5.284;2022-07-19T12:09:27;11.77;;;10.82;;
22234;SDS011;11286;45.596;5.284;2022-07-19T12:11:54;11.30;;;10.30;;
22234;SDS011;11286;45.596;5.284;2022-07-19T12:14:28;11.70;;;10.55;;
22234;SDS011;11286;45.596;5.284;2022-07-19T12:19:46;11.13;;;10.23;;
22234;SDS011;11286;45.596;5.284;2022-07-19T12:22:53;11.20;;;9.68;;
22234;SDS011;11286;45.596;5.284;2022-07-19T12:25:11;10.85;;;10.02;;
22234;SDS011;11286;45.596;5.284;2022-07-19T12:27:37;11.23;;;10.23;;
22234;SDS011;11286;45.596;5.284;2022-07-19T12:30:05;11.10;;;10.13;;
22234;SDS011;11286;45.596;5.284;2022-07-19T12:32:33;10.45;;;9.60;;
22234;SDS011;11286;45.596;5.284;2022-07-19T12:35:11;10.60;;;9.60;;
22234;SDS011;11286;45.596;5.284;2022-07-19T12:37:39;11.32;;;10.20;;
22234;SDS011;11286;45.596;5.284;2022-07-19T12:40:13;10.65;;;9.63;;
22234;SDS011;11286;45.596;5.284;2022-07-19T12:45:13;10.02;;;9.02;;
22234;SDS011;11286;45.596;5.284;2022-07-19T12:47:39;9.32;;;8.52;;
22234;SDS011;11286;45.596;5.284;2022-07-19T12:50:05;9.35;;;8.70;;
22234;SDS011;11286;45.596;5.284;2022-07-19T12:52:32;9.43;;;8.63;;
22234;SDS011;11286;45.596;5.284;2022-07-19T12:54:58;8.77;;;8.05;;
22234;SDS011;11286;45.596;5.284;2022-07-19T12:57:24;9.73;;;8.93;;
22234;SDS011;11286;45.596;5.284;2022-07-19T12:59:49;9.88;;;8.73;;
22234;SDS011;11286;45.596;5.284;2022-07-19T13:02:16;10.90;;;8.15;;
22234;SDS011;11286;45.596;5.284;2022-07-19T13:04:43;8.93;;;8.10;;
22234;SDS011;11286;45.596;5.284;2022-07-19T13:07:10;12.85;;;8.50;;
22234;SDS011;11286;45.596;5.284;2022-07-19T13:09:37;9.43;;;8.38;;
22234;SDS011;11286;45.596;5.284;2022-07-19T13:12:04;8.27;;;7.68;;
22234;SDS011;11286;45.596;5.284;2022-07-19T13:14:31;9.05;;;8.25;;
22234;SDS011;11286;45.596;5.284;2022-07-19T13:16:58;9.07;;;8.38;;
22234;SDS011;11286;45.596;5.284;2022-07-19T13:19:24;9.13;;;8.30;;
22234;SDS011;11286;45.596;5.284;2022-07-19T13:21:50;8.88;;;8.07;;
22234;SDS011;11286;45.596;5.284;2022-07-19T13:24:16;8.75;;;7.78;;
22234;SDS011;11286;45.596;5.284;2022-07-19T13:26:42;9.00;;;8.18;;
22234;SDS011;11286;45.596;5.284;2022-07-19T13:29:08;8.93;;;8.13;;
22234;SDS011;11286;45.596;5.284;2022-07-19T13:31:33;9.10;;;8.20;;
22234;SDS011;11286;45.596;5.284;2022-07-19T13:34:00;8.70;;;7.93;;
22234;SDS011;11286;45.596;5.284;2022-07-19T13:36:26;9.15;;;8.25;;
22234;SDS011;11286;45.596;5.284;2022-07-19T13:38:52;9.20;;;8.40;;
22234;SDS011;11286;45.596;5.284;2022-07-19T13:41:17;9.52;;;8.60;;
22234;SDS011;11286;45.596;5.284;2022-07-19T13:43:44;8.75;;;7.68;;
22234;SDS011;11286;45.596;5.284;2022-07-19T13:46:10;7.88;;;7.28;;
22234;SDS011;11286;45.596;5.284;2022-07-19T13:48:36;10.02;;;7.53;;
22234;SDS011;11286;45.596;5.284;2022-07-19T13:51:03;12.95;;;7.20;;
22234;SDS011;11286;45.596;5.284;2022-07-19T13:53:29;9.07;;;7.47;;
22234;SDS011;11286;45.596;5.284;2022-07-19T13:55:54;8.73;;;7.70;;
22234;SDS011;11286;45.596;5.284;2022-07-19T13:58:20;10.68;;;7.70;;
22234;SDS011;11286;45.596;5.284;2022-07-19T14:00:46;8.20;;;7.50;;
22234;SDS011;11286;45.596;5.284;2022-07-19T14:03:15;7.82;;;7.32;;
22234;SDS011;11286;45.596;5.284;2022-07-19T14:05:45;8.05;;;7.28;;
22234;SDS011;11286;45.596;5.284;2022-07-19T14:08:12;8.75;;;7.80;;
22234;SDS011;11286;45.596;5.284;2022-07-19T14:10:38;10.32;;;8.00;;
22234;SDS011;11286;45.596;5.284;2022-07-19T14:13:04;8.63;;;7.93;;
22234;SDS011;11286;45.596;5.284;2022-07-19T14:15:30;8.55;;;7.82;;
22234;SDS011;11286;45.596;5.284;2022-07-19T14:17:56;8.27;;;7.65;;
22234;SDS011;11286;45.596;5.284;2022-07-19T14:20:23;8.27;;;7.53;;
22234;SDS011;11286;45.596;5.284;2022-07-19T14:22:50;8.35;;;7.53;;
22234;SDS011;11286;45.596;5.284;2022-07-19T14:25:16;8.48;;;7.55;;
22234;SDS011;11286;45.596;5.284;2022-07-19T14:27:42;8.73;;;7.97;;
22234;SDS011;11286;45.596;5.284;2022-07-19T14:30:08;8.20;;;7.50;;
22234;SDS011;11286;45.596;5.284;2022-07-19T14:32:34;6.18;;;5.43;;
22234;SDS011;11286;45.596;5.284;2022-07-19T14:35:00;6.95;;;6.00;;
22234;SDS011;11286;45.596;5.284;2022-07-19T14:37:26;7.30;;;6.60;;
22234;SDS011;11286;45.596;5.284;2022-07-19T14:39:51;6.63;;;6.03;;
22234;SDS011;11286;45.596;5.284;2022-07-19T14:42:17;7.85;;;6.32;;
22234;SDS011;11286;45.596;5.284;2022-07-19T14:44:42;7.00;;;6.47;;
22234;SDS011;11286;45.596;5.284;2022-07-19T14:47:08;8.02;;;6.85;;
22234;SDS011;11286;45.596;5.284;2022-07-19T14:49:34;7.82;;;7.10;;
22234;SDS011;11286;45.596;5.284;2022-07-19T14:52:01;9.38;;;7.45;;
22234;SDS011;11286;45.596;5.284;2022-07-19T14:54:27;8.43;;;7.68;;
22234;SDS011;11286;45.596;5.284;2022-07-19T14:56:53;8.23;;;6.85;;
22234;SDS011;11286;45.596;5.284;2022-07-19T14:59:19;7.07;;;6.22;;
22234;SDS011;11286;45.596;5.284;2022-07-19T15:01:46;6.40;;;5.80;;
22234;SDS011;11286;45.596;5.284;2022-07-19T15:04:12;9.48;;;6.22;;
22234;SDS011;11286;45.596;5.284;2022-07-19T15:06:38;6.38;;;5.80;;
22234;SDS011;11286;45.596;5.284;2022-07-19T15:09:04;7.47;;;6.85;;